Time;durP1;ratioP1;P1;durP2;ratioP2;P2;SDS_P1;SDS_P2;PMS_P1;PMS_P2;Temp;Humidity;BMP_temperature;BMP_pressure;BME280_temperature;BME280_humidity;BME280_pressure;Samples;Min_cycle;Max_cycle;Signal;HPM_P1;HPM_P2
2023/12/13 00:01:49;;;;;;;;;0.00;0.00;;;;;20.68;48.54;99657.25;4919181;28;52990;-75
2023/12/13 00:04:14;;;;;;;;;2.33;0.67;;;;;20.68;48.60;99654.59;4920746;28;45290;-75
2023/12/13 00:06:39;;;;;;;;;4.33;0.33;;;;;20.42;49.02;99613.06;4920418;28;46986;-75
2023/12/13 00:09:08;;;;;;;;;0.67;0.00;;;;;20.68;48.95;99649.31;4934897;28;45371;-75
2023/12/13 00:11:33;;;;;;;;;0.00;0.00;;;;;20.61;48.81;99641.34;4920541;28;45327;-75
2023/12/13 00:13:59;;;;;;;;;0.67;0.67;;;;;20.63;48.79;99633.25;4920341;28;45388;-75
2023/12/13 00:16:24;;;;;;;;;1.00;0.67;;;;;20.59;48.92;99632.81;4920281;28;46961;-75
2023/12/13 00:18:50;;;;;;;;;1.00;0.00;;;;;20.59;48.99;99635.47;4920155;28;45357;-75
2023/12/13 00:21:16;;;;;;;;;0.33;0.33;;;;;20.58;48.52;99633.03;4920316;28;46824;-75
2023/12/13 00:23:42;;;;;;;;;3.67;0.67;;;;;20.67;48.60;99637.09;4920081;28;45431;-74
2023/12/13 00:26:17;;;;;;;;;0.00;0.00;;;;;20.44;48.52;99597.81;4920014;28;45963;-74
2023/12/13 00:28:43;;;;;;;;;0.00;0.00;;;;;20.67;49.02;99641.56;4920311;28;45391;-74
2023/12/13 00:31:10;;;;;;;;;0.00;0.00;;;;;20.60;48.54;99623.88;4919996;28;45354;-74
2023/12/13 00:33:35;;;;;;;;;0.00;0.00;;;;;20.34;48.67;99585.00;4920322;28;45326;-73
2023/12/13 00:36:00;;;;;;;;;1.33;1.00;;;;;20.60;48.41;99623.88;4920054;28;47022;-75
2023/12/13 00:38:26;;;;;;;;;2.67;1.00;;;;;20.55;48.52;99612.28;4919034;28;58922;-75
2023/12/13 00:40:51;;;;;;;;;0.33;0.33;;;;;20.65;48.40;99620.63;4920315;28;45381;-75
2023/12/13 00:43:17;;;;;;;;;0.33;0.33;;;;;20.67;48.41;99623.06;4920150;28;45399;-75
2023/12/13 00:45:42;;;;;;;;;0.00;0.00;;;;;20.67;48.61;99629.19;4919922;28;46238;-76
2023/12/13 00:48:08;;;;;;;;;0.67;0.67;;;;;20.67;48.61;99631.81;4920028;28;45466;-75
2023/12/13 00:50:33;;;;;;;;;1.67;0.00;;;;;20.59;48.44;99616.97;4920002;28;45437;-75
2023/12/13 00:52:59;;;;;;;;;1.00;0.00;;;;;20.60;48.60;99615.16;4919641;28;45448;-75
2023/12/13 00:55:24;;;;;;;;;1.00;0.67;;;;;20.67;48.46;99623.06;4919730;28;46933;-75
2023/12/13 00:57:49;;;;;;;;;0.67;0.67;;;;;20.57;48.33;99613.72;4919410;28;55901;-75
2023/12/13 01:00:15;;;;;;;;;2.00;0.00;;;;;20.67;48.90;99631.00;4919529;28;51843;-75
2023/12/13 01:02:40;;;;;;;;;1.33;1.33;;;;;20.42;48.63;99590.13;4919819;28;45324;-75
2023/12/13 01:05:07;;;;;;;;;0.00;0.00;;;;;20.67;48.51;99625.72;4919651;28;45287;-72
2023/12/13 01:07:32;;;;;;;;;1.00;0.00;;;;;20.67;48.61;99631.00;4919243;28;45254;-77
2023/12/13 01:09:58;;;;;;;;;1.33;0.00;;;;;20.67;48.34;99618.59;4919712;28;45240;-76
2023/12/13 01:12:23;;;;;;;;;1.00;0.00;;;;;20.58;48.61;99607.41;4919601;28;45224;-75
2023/12/13 01:14:48;;;;;;;;;0.33;0.33;;;;;20.56;48.57;99605.97;4918386;28;47006;-76
2023/12/13 01:17:14;;;;;;;;;0.67;0.00;;;;;20.62;48.57;99611.28;4919546;28;45408;-75
2023/12/13 01:19:39;;;;;;;;;0.00;0.00;;;;;20.68;48.69;99619.44;4919458;28;45300;-75
2023/12/13 01:22:04;;;;;;;;;0.00;0.00;;;;;20.67;48.68;99621.25;4919280;28;45474;-75
2023/12/13 01:24:30;;;;;;;;;0.67;0.67;;;;;20.65;48.84;99610.06;4918795;28;46024;-75
2023/12/13 01:26:55;;;;;;;;;2.33;0.00;;;;;20.49;48.36;99600.69;4919244;28;45247;-75
2023/12/13 01:29:20;;;;;;;;;0.67;0.00;;;;;20.59;48.79;99601.09;4919412;28;45305;-72
2023/12/13 01:31:46;;;;;;;;;1.00;1.00;;;;;20.67;48.51;99620.44;4919472;28;45327;-75
2023/12/13 01:34:11;;;;;;;;;0.00;0.00;;;;;20.66;48.62;99616.97;4919214;28;46276;-74
2023/12/13 01:36:41;;;;;;;;;0.67;0.67;;;;;20.67;48.69;99625.72;4918944;28;45403;-76
2023/12/13 01:39:07;;;;;;;;;2.67;0.00;;;;;20.56;48.84;99601.50;4919290;28;45423;-75
2023/12/13 01:41:32;;;;;;;;;0.00;0.00;;;;;20.58;48.73;99607.41;4919260;28;45474;-76
2023/12/13 01:43:58;;;;;;;;;0.00;0.00;;;;;20.48;48.82;99599.06;4919046;28;46157;-75
2023/12/13 01:46:23;;;;;;;;;0.00;0.00;;;;;20.39;48.79;99578.13;4919042;28;45319;-75
2023/12/13 01:48:49;;;;;;;;;1.00;1.00;;;;;20.66;48.32;99618.81;4919066;28;45430;-76
2023/12/13 01:51:15;;;;;;;;;2.00;0.67;;;;;20.56;48.79;99598.03;4918754;28;45390;-75
2023/12/13 01:53:42;;;;;;;;;1.00;1.00;;;;;20.58;48.75;99607.41;4918857;28;46265;-75
2023/12/13 01:56:09;;;;;;;;;2.00;1.00;;;;;20.46;48.70;99582.59;4919029;28;45417;-76
2023/12/13 01:58:37;;;;;;;;;1.00;1.00;;;;;20.63;48.67;99620.81;4918899;28;45473;-76
2023/12/13 02:01:03;;;;;;;;;0.00;0.00;;;;;20.66;48.32;99621.47;4918911;28;45519;-76
2023/12/13 02:03:30;;;;;;;;;0.33;0.00;;;;;20.55;48.60;99601.72;4918709;28;46642;-76
2023/12/13 02:05:56;;;;;;;;;0.00;0.00;;;;;20.67;48.35;99618.59;4918607;28;45423;-76
2023/12/13 02:08:22;;;;;;;;;0.00;0.00;;;;;20.67;48.51;99617.78;4918829;28;45372;-75
2023/12/13 02:10:49;;;;;;;;;0.67;0.67;;;;;20.43;48.29;99580.38;4918962;28;45310;-72
2023/12/13 02:13:15;;;;;;;;;1.33;1.00;;;;;20.61;48.53;99616.75;4918475;28;46264;-75
2023/12/13 02:15:42;;;;;;;;;2.00;0.00;;;;;20.67;48.11;99618.59;4918600;28;45387;-75
2023/12/13 02:18:09;;;;;;;;;0.00;0.00;;;;;20.62;48.56;99613.09;4917558;28;45355;-75
2023/12/13 02:20:34;;;;;;;;;0.00;0.00;;;;;20.66;48.30;99619.59;4918100;28;45606;-76
2023/12/13 02:22:59;;;;;;;;;0.67;0.00;;;;;20.67;48.74;99612.50;4918421;28;46218;-75
2023/12/13 02:25:38;;;;;;;;;1.33;0.00;;;;;20.66;48.69;99619.59;4918448;28;45391;-71
2023/12/13 02:28:05;;;;;;;;;0.00;0.00;;;;;20.63;48.58;99609.47;4918788;28;45271;-76
2023/12/13 02:30:31;;;;;;;;;1.00;1.00;;;;;20.54;48.47;99592.97;4918352;28;46341;-76
2023/12/13 02:32:56;;;;;;;;;1.00;0.67;;;;;20.54;48.52;99590.31;4918157;28;46568;-75
2023/12/13 02:35:22;;;;;;;;;1.00;1.00;;;;;20.63;48.23;99601.53;4917077;28;49602;-75
2023/12/13 02:37:49;;;;;;;;;0.00;0.00;;;;;20.59;48.39;99595.81;4918606;28;45288;-75
2023/12/13 02:40:18;;;;;;;;;1.67;0.00;;;;;20.67;48.61;99613.31;4918357;28;45383;-75
2023/12/13 02:42:44;;;;;;;;;0.67;0.00;;;;;20.66;48.39;99606.41;4918128;28;46382;-75
2023/12/13 02:45:12;;;;;;;;;2.67;0.00;;;;;20.67;48.53;99615.97;4918213;28;45355;-75
2023/12/13 02:47:41;;;;;;;;;2.33;0.33;;;;;20.66;48.48;99605.59;4918377;28;45383;-75
2023/12/13 02:50:11;;;;;;;;;0.00;0.00;;;;;20.62;48.16;99594.59;4918196;28;45385;-75
2023/12/13 02:52:37;;;;;;;;;3.67;1.67;;;;;20.66;48.37;99597.69;4918240;28;46105;-75
2023/12/13 02:55:03;;;;;;;;;0.00;0.00;;;;;20.38;48.20;99555.34;4918265;28;45383;-75
2023/12/13 02:57:28;;;;;;;;;1.67;0.00;;;;;20.65;48.37;99591.56;4918196;28;45514;-76
2023/12/13 02:59:54;;;;;;;;;0.00;0.00;;;;;20.65;48.28;99591.56;4918254;28;45402;-76
2023/12/13 03:02:19;;;;;;;;;0.00;0.00;;;;;20.60;48.02;99578.97;4918008;28;46337;-76
2023/12/13 03:04:44;;;;;;;;;1.00;0.00;;;;;20.64;48.16;99584.66;4917521;28;52654;-76
2023/12/13 03:07:10;;;;;;;;;1.00;0.00;;;;;20.65;48.52;99580.19;4918275;28;45360;-75
2023/12/13 03:09:35;;;;;;;;;0.67;0.00;;;;;20.59;48.33;99574.69;4917993;28;45454;-76
2023/12/13 03:12:00;;;;;;;;;0.33;0.00;;;;;20.55;48.30;99554.16;4917988;28;45475;-76
2023/12/13 03:14:26;;;;;;;;;0.67;0.67;;;;;20.59;47.99;99565.94;4918125;28;45583;-72
2023/12/13 03:16:51;;;;;;;;;0.50;0.50;;;;;20.62;48.53;99565.53;4918195;28;45596;-76
2023/12/13 03:19:17;;;;;;;;;0.33;0.33;;;;;20.57;48.35;99552.13;4917661;28;45343;-76
2023/12/13 03:21:42;;;;;;;;;0.00;0.00;;;;;20.56;48.45;99556.59;4917789;28;46338;-75
2023/12/13 03:24:08;;;;;;;;;1.33;0.67;;;;;20.63;48.31;99573.25;4917847;28;49641;-75
2023/12/13 03:26:33;;;;;;;;;0.00;0.00;;;;;20.62;48.38;99555.78;4917389;28;52172;-75
2023/12/13 03:28:58;;;;;;;;;2.00;0.00;;;;;20.50;48.55;99544.19;4917888;28;45300;-75
2023/12/13 03:31:23;;;;;;;;;0.00;0.00;;;;;20.62;48.75;99563.72;4917614;28;45500;-75
2023/12/13 03:33:49;;;;;;;;;0.33;0.33;;;;;20.58;48.51;99556.41;4916991;28;56979;-75
2023/12/13 03:36:16;;;;;;;;;0.00;0.00;;;;;20.65;48.15;99561.69;4917953;28;45331;-74
2023/12/13 03:38:44;;;;;;;;;0.00;0.00;;;;;20.63;48.12;99564.53;4917759;28;45463;-75
2023/12/13 03:41:09;;;;;;;;;0.67;0.67;;;;;20.64;48.08;99563.50;4917464;28;46302;-75
2023/12/13 03:43:35;;;;;;;;;0.00;0.00;;;;;20.64;48.59;99563.50;4917366;28;45283;-74
2023/12/13 03:46:00;;;;;;;;;1.00;0.00;;;;;20.64;48.33;99558.22;4917941;28;45798;-75
2023/12/13 03:48:25;;;;;;;;;0.00;0.00;;;;;20.54;48.05;99542.75;4919906;28;57829;-75
2023/12/13 03:50:51;;;;;;;;;0.67;0.67;;;;;20.55;47.82;99541.75;4920616;28;49293;-75
2023/12/13 03:53:16;;;;;;;;;1.33;0.00;;;;;20.54;48.46;99542.75;4920795;28;45327;-75
2023/12/13 03:55:41;;;;;;;;;0.00;0.00;;;;;20.64;48.11;99560.88;4920896;28;45374;-75
2023/12/13 03:58:06;;;;;;;;;1.00;0.00;;;;;20.52;48.21;99539.53;4920944;28;45391;-75
2023/12/13 04:00:32;;;;;;;;;0.67;0.67;;;;;20.62;48.23;99549.69;4920479;28;47206;-75
2023/12/13 04:02:57;;;;;;;;;0.00;0.00;;;;;20.64;48.21;99555.56;4918874;28;49608;-75
2023/12/13 04:05:22;;;;;;;;;0.00;0.00;;;;;20.52;48.23;99539.53;4920852;28;45326;-75
2023/12/13 04:07:48;;;;;;;;;0.00;0.00;;;;;20.65;48.20;99556.41;4920658;28;45502;-76
2023/12/13 04:10:13;;;;;;;;;2.00;0.00;;;;;20.65;48.37;99565.16;4920460;28;46036;-74
2023/12/13 04:12:39;;;;;;;;;0.67;0.00;;;;;20.66;48.39;99565.97;4920670;28;45344;-75
2023/12/13 04:15:05;;;;;;;;;0.33;0.00;;;;;20.63;48.37;99554.75;4920653;28;45352;-75
2023/12/13 04:17:30;;;;;;;;;0.00;0.00;;;;;20.66;48.44;99563.31;4920222;28;45394;-75
2023/12/13 04:19:57;;;;;;;;;0.67;0.67;;;;;20.59;48.48;99553.53;4919825;28;57191;-75
2023/12/13 04:22:22;;;;;;;;;2.00;1.00;;;;;20.63;48.18;99564.53;4920496;28;45430;-75
2023/12/13 04:24:47;;;;;;;;;2.67;0.00;;;;;20.65;48.33;99565.16;4920487;28;45363;-75
2023/12/13 04:27:13;;;;;;;;;0.67;0.67;;;;;20.63;48.40;99567.19;4920013;28;47558;-75
2023/12/13 04:29:38;;;;;;;;;1.67;0.00;;;;;20.63;48.35;99560.03;4920074;28;47154;-74
2023/12/13 04:32:04;;;;;;;;;0.33;0.00;;;;;20.65;48.44;99564.31;4919877;28;45435;-75
2023/12/13 04:34:29;;;;;;;;;0.00;0.00;;;;;20.65;48.11;99564.31;4920323;28;45425;-75
2023/12/13 04:36:55;;;;;;;;;0.67;0.00;;;;;20.65;48.33;99564.31;4920298;28;45434;-75
2023/12/13 04:39:20;;;;;;;;;0.67;0.67;;;;;20.55;48.16;99552.34;4920049;28;46029;-76
2023/12/13 04:41:45;;;;;;;;;2.33;0.00;;;;;20.62;48.29;99563.72;4919950;28;47765;-75
2023/12/13 04:44:12;;;;;;;;;0.00;0.00;;;;;20.65;48.08;99559.84;4919878;28;49820;-74
2023/12/13 04:46:38;;;;;;;;;0.67;0.00;;;;;20.62;48.13;99560.25;4919798;28;45315;-75
2023/12/13 04:49:03;;;;;;;;;0.00;0.00;;;;;20.60;48.38;99557.00;4919873;28;46277;-75
2023/12/13 04:51:29;;;;;;;;;0.00;0.00;;;;;20.65;48.01;99556.41;4919958;28;45334;-75
2023/12/13 04:53:54;;;;;;;;;2.00;0.00;;;;;20.59;47.89;99550.91;4919976;28;45529;-75
2023/12/13 04:56:19;;;;;;;;;0.00;0.00;;;;;20.61;48.34;99558.63;4919992;28;45430;-75
2023/12/13 04:58:44;;;;;;;;;0.50;0.50;;;;;20.62;47.94;99547.84;4917483;28;51105;-75
2023/12/13 05:01:10;;;;;;;;;1.67;0.00;;;;;20.65;48.25;99551.09;4918912;28;59595;-76
2023/12/13 05:03:35;;;;;;;;;0.67;0.33;;;;;20.59;48.49;99545.63;4919927;28;45579;-75
2023/12/13 05:06:00;;;;;;;;;1.67;0.00;;;;;20.58;48.09;99540.53;4920033;28;45382;-75
2023/12/13 05:08:26;;;;;;;;;1.33;0.00;;;;;20.64;47.95;99550.28;4919386;28;53605;-75
2023/12/13 05:10:52;;;;;;;;;0.00;0.00;;;;;20.64;47.99;99552.94;4919545;28;45212;-75
2023/12/13 05:13:18;;;;;;;;;0.00;0.00;;;;;20.44;48.53;99519.38;4919835;28;45324;-75
2023/12/13 05:15:44;;;;;;;;;0.67;0.67;;;;;20.59;48.01;99542.16;4919435;28;45463;-76
2023/12/13 05:18:09;;;;;;;;;0.00;0.00;;;;;20.64;47.81;99555.56;4919414;28;46762;-75
2023/12/13 05:20:34;;;;;;;;;0.67;0.67;;;;;20.56;48.27;99535.44;4934084;28;45288;-75
2023/12/13 05:22:59;;;;;;;;;0.33;0.33;;;;;20.64;48.01;99542.34;4919202;28;53767;-75
2023/12/13 05:25:26;;;;;;;;;0.00;0.00;;;;;20.59;48.25;99536.88;4919381;28;45289;-74
2023/12/13 05:27:51;;;;;;;;;0.00;0.00;;;;;20.65;48.23;99546.63;4919454;28;47214;-75
2023/12/13 05:30:18;;;;;;;;;0.00;0.00;;;;;20.63;47.98;99549.47;4918874;28;45359;-75
2023/12/13 05:32:43;;;;;;;;;0.00;0.00;;;;;20.66;48.18;99558.03;4919360;28;45324;-75
2023/12/13 05:35:08;;;;;;;;;2.67;0.67;;;;;20.55;47.86;99544.41;4919378;28;45338;-75
2023/12/13 05:37:34;;;;;;;;;0.00;0.00;;;;;20.65;48.06;99557.22;4919083;28;45384;-75
2023/12/13 05:39:59;;;;;;;;;0.00;0.00;;;;;20.65;47.97;99562.50;4919323;28;45585;-75
2023/12/13 05:42:24;;;;;;;;;0.00;0.00;;;;;20.66;47.95;99566.75;4919293;28;45317;-75
2023/12/13 05:44:50;;;;;;;;;0.00;0.00;;;;;20.61;48.09;99554.16;4918931;28;45330;-74
2023/12/13 05:47:15;;;;;;;;;0.67;0.00;;;;;20.57;48.42;99552.94;4919235;28;45456;-74
2023/12/13 05:49:40;;;;;;;;;0.00;0.00;;;;;20.47;48.29;99542.78;4919021;28;45347;-74
2023/12/13 05:52:06;;;;;;;;;0.67;0.00;;;;;20.58;48.24;99557.19;4918861;28;51801;-75
2023/12/13 05:54:32;;;;;;;;;1.33;0.00;;;;;20.57;48.37;99560.03;4919148;28;45368;-75
2023/12/13 05:56:58;;;;;;;;;0.67;0.67;;;;;20.65;48.11;99581.00;4918752;28;47235;-75
2023/12/13 05:59:23;;;;;;;;;0.67;0.67;;;;;20.63;48.08;99577.75;4918438;28;45408;-75
2023/12/13 06:01:48;;;;;;;;;0.00;0.00;;;;;20.59;48.23;99571.22;4918521;28;55363;-75
2023/12/13 06:04:14;;;;;;;;;1.00;0.00;;;;;20.65;47.83;99580.19;4918867;28;46753;-75
2023/12/13 06:06:44;;;;;;;;;0.00;0.00;;;;;20.59;48.17;99566.75;4918809;28;46171;-76
2023/12/13 06:09:10;;;;;;;;;0.67;0.67;;;;;20.64;48.22;99568.78;4918480;28;45418;-76
2023/12/13 06:11:35;;;;;;;;;1.00;0.00;;;;;20.55;48.31;99562.91;4918389;28;45423;-75
2023/12/13 06:14:01;;;;;;;;;0.00;0.00;;;;;20.58;48.24;99564.31;4918916;28;45311;-74
2023/12/13 06:16:26;;;;;;;;;1.67;0.67;;;;;20.56;48.27;99556.59;4933374;28;47238;-75
2023/12/13 06:18:51;;;;;;;;;0.00;0.00;;;;;20.61;48.25;99567.38;4933282;28;45412;-75
2023/12/13 06:21:17;;;;;;;;;2.00;0.00;;;;;20.66;48.22;99574.69;4918542;28;45374;-76
2023/12/13 06:23:42;;;;;;;;;0.00;0.00;;;;;20.65;47.87;99588.94;4918593;28;45365;-72
2023/12/13 06:26:07;;;;;;;;;0.00;0.00;;;;;20.60;47.96;99575.50;4918025;28;46012;-76
2023/12/13 06:28:33;;;;;;;;;0.00;0.00;;;;;20.65;48.08;99581.00;4918405;28;45304;-75
2023/12/13 06:30:58;;;;;;;;;0.00;0.00;;;;;20.65;47.80;99575.72;4918398;28;45336;-76
2023/12/13 06:33:23;;;;;;;;;0.00;0.00;;;;;20.44;47.97;99548.44;4918298;28;46423;-75
2023/12/13 06:35:49;;;;;;;;;0.67;0.67;;;;;20.57;48.01;99570.63;4918445;28;46241;-72
2023/12/13 06:38:14;;;;;;;;;0.00;0.00;;;;;20.56;48.28;99572.44;4918548;28;45284;-75
2023/12/13 06:40:39;;;;;;;;;0.00;0.00;;;;;20.54;48.22;99574.47;4918265;28;45314;-75
2023/12/13 06:43:05;;;;;;;;;0.33;0.00;;;;;20.60;47.92;99581.59;4916989;28;55645;-75
2023/12/13 06:45:30;;;;;;;;;0.00;0.00;;;;;20.62;48.07;99592.78;4916981;28;46307;-75
2023/12/13 06:47:55;;;;;;;;;0.67;0.67;;;;;20.66;48.07;99601.09;4917157;28;55536;-75
2023/12/13 06:50:21;;;;;;;;;0.67;0.67;;;;;20.59;47.97;99590.53;4917373;28;51282;-75
2023/12/13 06:52:47;;;;;;;;;1.00;0.67;;;;;20.67;48.26;99594.81;4917622;28;45375;-74
2023/12/13 06:55:13;;;;;;;;;0.00;0.00;;;;;20.68;47.97;99604.38;4917047;28;46235;-75
2023/12/13 06:57:38;;;;;;;;;0.00;0.00;;;;;20.60;48.09;99586.91;4917184;28;45398;-76
2023/12/13 07:00:05;;;;;;;;;0.00;0.00;;;;;20.71;48.41;99601.31;4917329;28;45609;-74
2023/12/13 07:02:31;;;;;;;;;1.00;1.00;;;;;20.59;48.39;99593.19;4914624;28;45475;-75
2023/12/13 07:04:56;;;;;;;;;1.67;0.00;;;;;20.72;48.25;99613.53;4917138;28;46995;-74
2023/12/13 07:07:22;;;;;;;;;0.67;0.67;;;;;20.70;48.54;99612.94;4917142;28;45473;-73
2023/12/13 07:09:48;;;;;;;;;0.00;0.00;;;;;20.62;48.58;99603.34;4917247;28;45359;-75
2023/12/13 07:12:13;;;;;;;;;1.33;0.33;;;;;20.65;48.42;99603.97;4918127;28;45364;-75
2023/12/13 07:14:38;;;;;;;;;1.67;0.00;;;;;20.66;48.53;99602.97;4932319;28;57464;-75
2023/12/13 07:17:04;;;;;;;;;0.67;0.33;;;;;20.73;48.61;99615.16;4918055;28;45418;-75
2023/12/13 07:19:29;;;;;;;;;0.67;0.00;;;;;20.68;48.24;99611.50;4917921;28;45362;-76
2023/12/13 07:21:54;;;;;;;;;0.67;0.67;;;;;20.59;48.09;99592.38;4919311;28;45394;-75
2023/12/13 07:24:20;;;;;;;;;1.00;1.00;;;;;20.69;48.29;99618.38;4935567;28;46455;-76
2023/12/13 07:26:46;;;;;;;;;0.00;0.00;;;;;20.73;47.98;99622.28;4920977;28;46930;-75
2023/12/13 07:29:11;;;;;;;;;0.75;0.75;;;;;20.68;48.26;99622.06;4921322;28;45400;-76
2023/12/13 07:31:39;;;;;;;;;0.00;0.00;;;;;20.72;48.55;99626.75;4920872;28;45466;-75
2023/12/13 07:34:05;;;;;;;;;0.67;0.00;;;;;20.63;48.09;99615.53;4920899;28;47074;-75
2023/12/13 07:36:30;;;;;;;;;1.00;0.00;;;;;20.60;48.46;99609.84;4920996;28;45451;-75
2023/12/13 07:38:56;;;;;;;;;0.67;0.00;;;;;20.67;48.18;99625.72;4920284;28;55753;-74
2023/12/13 07:41:21;;;;;;;;;0.00;0.00;;;;;20.65;48.44;99625.94;4921344;28;45402;-74
2023/12/13 07:43:47;;;;;;;;;3.00;0.00;;;;;20.62;48.16;99621.03;4920952;28;46952;-74
2023/12/13 07:46:13;;;;;;;;;0.00;0.00;;;;;20.59;48.17;99611.69;4920922;28;45347;-72
2023/12/13 07:48:41;;;;;;;;;0.33;0.00;;;;;20.60;48.42;99625.72;4921089;28;45371;-75
2023/12/13 07:51:06;;;;;;;;;0.67;0.67;;;;;20.65;48.39;99641.78;4920866;28;45391;-75
2023/12/13 07:53:32;;;;;;;;;0.00;0.00;;;;;20.61;48.59;99627.31;4920486;28;45419;-74
2023/12/13 07:55:57;;;;;;;;;1.00;0.00;;;;;20.70;48.55;99655.22;4920977;28;45415;-74
2023/12/13 07:58:22;;;;;;;;;0.00;0.00;;;;;20.68;48.41;99654.59;4920716;28;46691;-72
2023/12/13 08:00:47;;;;;;;;;0.67;0.67;;;;;20.62;48.12;99640.34;4920509;28;45360;-75
2023/12/13 08:03:13;;;;;;;;;0.00;0.00;;;;;20.63;48.43;99641.97;4917923;28;52241;-77
2023/12/13 08:05:38;;;;;;;;;0.00;0.00;;;;;20.66;48.50;99648.69;4918663;28;45515;-75
2023/12/13 08:08:04;;;;;;;;;0.67;0.00;;;;;20.68;48.63;99662.53;4919993;28;45486;-75
2023/12/13 08:10:29;;;;;;;;;1.00;1.00;;;;;20.70;48.67;99667.59;4920329;28;45446;-75
2023/12/13 08:12:54;;;;;;;;;0.00;0.00;;;;;20.69;48.81;99663.31;4920148;28;46052;-75
2023/12/13 08:15:20;;;;;;;;;0.33;0.00;;;;;20.68;48.63;99675.75;4920251;28;45483;-76
2023/12/13 08:17:46;;;;;;;;;0.00;0.00;;;;;20.68;48.87;99681.03;4920325;28;45515;-76
2023/12/13 08:20:11;;;;;;;;;1.33;0.33;;;;;20.68;48.60;99685.50;4920462;28;45296;-73
2023/12/13 08:22:37;;;;;;;;;1.67;0.00;;;;;20.65;48.64;99685.91;4919627;28;45465;-76
2023/12/13 08:25:03;;;;;;;;;1.00;0.33;;;;;20.68;48.58;99688.16;4919965;28;45542;-74
2023/12/13 08:27:29;;;;;;;;;0.00;0.00;;;;;20.68;48.59;99688.16;4920311;28;45356;-75
2023/12/13 08:29:54;;;;;;;;;0.00;0.00;;;;;20.69;48.73;99692.41;4919789;28;45401;-76
2023/12/13 08:32:19;;;;;;;;;1.33;0.00;;;;;20.68;48.85;99696.91;4919232;28;46440;-75
2023/12/13 08:34:45;;;;;;;;;0.00;0.00;;;;;20.65;48.90;99689.34;4919390;28;45386;-75
2023/12/13 08:37:11;;;;;;;;;1.67;1.00;;;;;20.68;48.79;99701.38;4919776;28;45451;-75
2023/12/13 08:39:36;;;;;;;;;0.00;0.00;;;;;20.68;48.72;99704.81;4918872;28;45317;-76
2023/12/13 08:42:01;;;;;;;;;0.00;0.00;;;;;20.58;49.01;99691.16;4920002;28;45905;-76
2023/12/13 08:44:27;;;;;;;;;0.67;0.00;;;;;20.60;48.79;99703.16;4919826;28;45459;-75
2023/12/13 08:46:53;;;;;;;;;1.33;0.00;;;;;20.68;48.69;99710.09;4919815;28;45438;-75
2023/12/13 08:49:19;;;;;;;;;2.67;0.00;;;;;20.69;48.73;99719.66;4920050;28;45443;-75
2023/12/13 08:51:44;;;;;;;;;0.00;0.00;;;;;20.69;49.01;99726.75;4919068;28;47461;-75
2023/12/13 08:54:10;;;;;;;;;1.33;0.00;;;;;20.63;48.38;99715.97;4919629;28;45375;-75
2023/12/13 08:56:35;;;;;;;;;0.67;0.00;;;;;20.63;48.81;99721.25;4919749;28;45376;-75
2023/12/13 08:59:01;;;;;;;;;2.00;0.33;;;;;20.69;48.72;99727.56;4919440;28;45341;-75
2023/12/13 09:01:26;;;;;;;;;0.00;0.00;;;;;20.63;48.55;99721.25;4919696;28;45407;-79
2023/12/13 09:03:52;;;;;;;;;2.67;0.67;;;;;20.69;48.51;99730.22;4919273;28;45179;-79
2023/12/13 09:06:18;;;;;;;;;0.00;0.00;;;;;20.65;48.88;99733.47;4919128;28;45296;-79
2023/12/13 09:08:44;;;;;;;;;0.33;0.33;;;;;20.68;48.75;99733.91;4919702;28;45277;-79
2023/12/13 09:11:10;;;;;;;;;0.00;0.00;;;;;20.69;48.73;99732.88;4919356;28;46068;-79
2023/12/13 09:13:35;;;;;;;;;0.67;0.33;;;;;20.67;49.13;99728.78;4919372;28;45340;-79
2023/12/13 09:16:00;;;;;;;;;2.33;0.00;;;;;20.70;48.82;99736.34;4919535;28;45409;-78
2023/12/13 09:18:26;;;;;;;;;0.67;0.67;;;;;20.67;48.86;99736.72;4919349;28;45418;-79
2023/12/13 09:20:51;;;;;;;;;1.67;0.67;;;;;20.69;48.98;99740.78;4918620;28;45922;-77
2023/12/13 09:23:21;;;;;;;;;0.33;0.33;;;;;20.69;48.75;99746.09;4918151;28;45425;-78
2023/12/13 09:25:47;;;;;;;;;1.67;0.67;;;;;20.70;48.53;99738.97;4919227;28;45498;-78
2023/12/13 09:28:12;;;;;;;;;0.67;0.67;;;;;20.70;48.96;99744.25;4919265;28;45432;-79
2023/12/13 09:30:37;;;;;;;;;0.00;0.00;;;;;20.69;48.88;99737.34;4919086;28;45451;-79
2023/12/13 09:33:03;;;;;;;;;0.00;0.00;;;;;20.69;48.76;99742.63;4919297;28;45378;-78
2023/12/13 09:35:28;;;;;;;;;1.33;0.00;;;;;20.64;49.01;99743.22;4918814;28;45351;-79
2023/12/13 09:37:53;;;;;;;;;1.67;0.00;;;;;20.69;48.80;99754.00;4919119;28;45397;-79
2023/12/13 09:40:19;;;;;;;;;1.67;0.67;;;;;20.69;48.40;99761.94;4918484;28;61736;-79
2023/12/13 09:42:46;;;;;;;;;0.33;0.33;;;;;20.64;48.83;99753.78;4917614;28;45356;-79
2023/12/13 09:45:17;;;;;;;;;0.33;0.33;;;;;20.47;48.67;99738.28;4918549;28;45378;-78
2023/12/13 09:47:44;;;;;;;;;1.00;0.00;;;;;20.69;48.59;99769.03;4918929;28;45321;-79
2023/12/13 09:50:11;;;;;;;;;0.67;0.67;;;;;20.69;48.50;99779.63;4918605;28;46161;-79
2023/12/13 09:52:37;;;;;;;;;0.33;0.33;;;;;20.62;48.40;99772.50;4918901;28;45377;-79
2023/12/13 09:55:06;;;;;;;;;0.67;0.67;;;;;20.69;48.67;99782.25;4919022;28;45309;-79
2023/12/13 09:57:32;;;;;;;;;1.67;0.33;;;;;20.60;48.58;99781.63;4918714;28;45412;-79
2023/12/13 09:59:57;;;;;;;;;0.67;0.67;;;;;20.62;48.74;99780.44;4918522;28;46075;-79
2023/12/13 10:02:23;;;;;;;;;2.33;1.33;;;;;20.61;48.86;99784.06;4918174;28;45337;-79
2023/12/13 10:04:48;;;;;;;;;0.00;0.00;;;;;20.69;48.60;99798.13;4918284;28;45393;-79
2023/12/13 10:07:14;;;;;;;;;0.67;0.67;;;;;20.69;48.55;99811.34;4918701;28;45702;-79
2023/12/13 10:09:40;;;;;;;;;2.00;0.00;;;;;20.53;48.99;99789.53;4918463;28;46246;-80
2023/12/13 10:12:07;;;;;;;;;0.00;0.00;;;;;20.69;49.03;99819.28;4918368;28;45487;-79
2023/12/13 10:14:35;;;;;;;;;1.33;1.33;;;;;20.68;48.77;99818.47;4918272;28;45395;-80
2023/12/13 10:17:01;;;;;;;;;2.33;1.00;;;;;20.68;48.46;99823.75;4918505;28;45319;-79
2023/12/13 10:19:26;;;;;;;;;1.67;0.67;;;;;20.68;48.35;99818.47;4917638;28;45361;-78
2023/12/13 10:21:52;;;;;;;;;0.67;0.67;;;;;20.63;48.58;99823.53;4918341;28;45300;-78
2023/12/13 10:24:20;;;;;;;;;0.67;0.67;;;;;20.69;48.34;99829.84;4918397;28;45303;-79
2023/12/13 10:26:46;;;;;;;;;3.33;0.67;;;;;20.65;48.53;99829.44;4918281;28;45629;-79
2023/12/13 10:29:11;;;;;;;;;2.00;1.00;;;;;20.59;48.73;99823.09;4918176;28;45267;-79
2023/12/13 10:31:37;;;;;;;;;2.33;0.67;;;;;20.69;48.57;99840.41;4918081;28;45543;-79
2023/12/13 10:34:02;;;;;;;;;1.00;1.00;;;;;20.47;48.48;99809.63;4918058;28;45391;-78
2023/12/13 10:36:29;;;;;;;;;2.67;0.67;;;;;20.63;48.40;99837.53;4933163;28;45380;-80
2023/12/13 10:38:56;;;;;;;;;0.67;0.67;;;;;20.69;48.99;99845.69;4918022;28;46147;-79
2023/12/13 10:41:25;;;;;;;;;2.00;2.00;;;;;20.69;48.74;99848.34;4918275;28;45496;-79
2023/12/13 10:43:54;;;;;;;;;1.00;1.00;;;;;20.69;48.42;99857.09;4916615;28;45482;-79
2023/12/13 10:46:21;;;;;;;;;2.67;1.67;;;;;20.69;48.50;99856.28;4917938;28;45423;-78
2023/12/13 10:48:48;;;;;;;;;1.00;1.00;;;;;20.70;48.87;99860.56;4917624;28;47831;-77
2023/12/13 10:51:14;;;;;;;;;1.00;0.67;;;;;20.69;48.57;99857.09;4917830;28;45342;-78
2023/12/13 10:53:41;;;;;;;;;0.67;0.67;;;;;20.69;48.68;99853.63;4917989;28;45352;-78
2023/12/13 10:56:08;;;;;;;;;3.00;0.67;;;;;20.67;48.35;99847.72;4918209;28;45330;-78
2023/12/13 10:58:34;;;;;;;;;2.00;1.00;;;;;20.69;48.48;99851.81;4921130;28;45486;-79
2023/12/13 11:01:01;;;;;;;;;3.00;2.00;;;;;20.69;48.82;99861.56;4921014;28;45352;-79
2023/12/13 11:03:45;;;;;;;;;0.67;0.67;;;;;20.62;48.53;99850.97;4921304;28;45454;-80
2023/12/13 11:06:16;;;;;;;;;0.33;0.33;;;;;20.68;48.81;99867.88;4921216;28;45443;-80
2023/12/13 11:08:45;;;;;;;;;2.00;1.00;;;;;20.68;48.43;99873.97;4921305;28;46200;-79
2023/12/13 11:11:13;;;;;;;;;1.00;1.00;;;;;20.68;48.42;99876.63;4920917;28;45486;-79
2023/12/13 11:13:54;;;;;;;;;2.33;1.00;;;;;20.68;48.36;99881.91;4921272;28;45362;-79
2023/12/13 11:16:22;;;;;;;;;1.00;1.00;;;;;20.68;48.51;99884.56;4920830;28;45379;-79
2023/12/13 11:18:50;;;;;;;;;1.00;1.00;;;;;20.68;48.44;99881.91;4920986;28;47285;-79
2023/12/13 11:21:26;;;;;;;;;1.67;1.33;;;;;20.61;48.25;99876.56;4920874;28;45409;-79
2023/12/13 11:23:52;;;;;;;;;1.33;0.00;;;;;20.66;48.11;99883.13;4921199;28;45369;-78
2023/12/13 11:26:22;;;;;;;;;1.00;1.00;;;;;20.67;48.58;99877.63;4920927;28;45408;-79
2023/12/13 11:28:54;;;;;;;;;1.00;1.00;;;;;20.68;48.42;99891.66;4920755;28;46532;-79